Time;durP1;ratioP1;P1;durP2;ratioP2;P2;SDS_P1;SDS_P2;PMS_P1;PMS_P2;Temp;Humidity;BMP_temperature;BMP_pressure;BME280_temperature;BME280_humidity;BME280_pressure;Samples;Min_cycle;Max_cycle;Signal;HPM_P1;HPM_P2
2023/02/26 00:01:26;;;;;;;5.80;2.95;;;;;;;0.89;69.89;100152.72;5072372;28;20081;-81
2023/02/26 00:03:56;;;;;;;6.67;2.63;;;;;;;0.87;70.32;100153.63;5072147;28;20052;-80
2023/02/26 00:06:24;;;;;;;8.85;2.80;;;;;;;0.91;70.92;100153.59;5070589;28;20496;-80
2023/02/26 00:08:52;;;;;;;5.40;2.58;;;;;;;0.61;70.44;100104.41;5053413;28;20057;-79
2023/02/26 00:11:20;;;;;;;8.55;2.88;;;;;;;0.80;70.17;100145.00;5072328;28;20114;-79
2023/02/26 00:13:47;;;;;;;5.25;2.35;;;;;;;0.61;70.98;100138.28;5071378;28;20063;-81
2023/02/26 00:16:32;;;;;;;5.38;2.47;;;;;;;0.69;70.77;100154.69;5067698;28;20045;-81
2023/02/26 00:19:01;;;;;;;5.50;2.33;;;;;;;0.72;71.60;100180.72;5066669;28;20543;-79
2023/02/26 00:21:29;;;;;;;5.18;2.50;;;;;;;0.55;72.76;100153.97;5071952;28;20080;-81
2023/02/26 00:23:57;;;;;;;6.18;2.75;;;;;;;0.64;73.27;100179.91;5072285;28;20124;-83
2023/02/26 00:26:25;;;;;;;5.95;2.40;;;;;;;0.66;73.85;100171.22;5072683;28;20581;-80
2023/02/26 00:28:53;;;;;;;6.05;2.67;;;;;;;0.67;73.58;100172.06;5070841;28;20101;-80
2023/02/26 00:31:23;;;;;;;5.00;2.50;;;;;;;-0.48;73.37;99984.03;5072700;28;20091;-81
2023/02/26 00:33:54;;;;;;;4.47;2.50;;;;;;;0.43;73.37;100133.25;5073224;28;20059;-81
2023/02/26 00:36:34;;;;;;;10.93;3.50;;;;;;;0.46;73.93;100138.44;5065348;28;20049;-79
2023/02/26 00:39:08;;;;;;;8.85;3.20;;;;;;;0.65;74.12;100186.88;5066777;28;20149;-81
2023/02/26 00:41:35;;;;;;;5.22;3.00;;;;;;;0.45;75.28;100160.16;5070586;28;20504;-80
2023/02/26 00:44:02;;;;;;;6.57;2.90;;;;;;;-0.45;75.88;100025.59;5065436;28;20100;-81
2023/02/26 00:46:50;;;;;;;5.18;3.00;;;;;;;0.44;75.49;100168.84;5071249;28;20044;-82
2023/02/26 00:49:38;;;;;;;7.45;2.85;;;;;;;0.58;76.34;100182.59;5066370;28;20697;-80
2023/02/26 00:52:12;;;;;;;7.30;2.55;;;;;;;0.32;76.11;100147.22;5060348;28;20040;-79
2023/02/26 00:54:39;;;;;;;5.38;2.80;;;;;;;0.00;76.03;100092.84;5069435;28;20140;-80
2023/02/26 00:57:06;;;;;;;7.43;3.00;;;;;;;0.23;76.16;100123.91;5072000;28;20113;-80
2023/02/26 00:59:32;;;;;;;6.68;2.30;;;;;;;0.14;76.41;100123.13;5071226;28;20768;-82
2023/02/26 01:01:59;;;;;;;5.68;2.50;;;;;;;-0.03;75.82;100079.03;5070901;28;20072;-80
2023/02/26 01:04:26;;;;;;;6.22;3.00;;;;;;;-0.82;76.00;99941.84;5071119;28;20044;-82
2023/02/26 01:06:55;;;;;;;5.63;2.53;;;;;;;-0.03;75.91;100053.00;5071332;28;20055;-84
2023/02/26 01:09:26;;;;;;;6.10;2.72;;;;;;;0.70;75.49;100182.47;5071723;28;20080;-82
2023/02/26 01:11:55;;;;;;;6.00;2.28;;;;;;;0.41;75.71;100125.47;5071002;28;20087;-81
2023/02/26 01:14:23;;;;;;;6.45;2.40;;;;;;;0.65;76.52;100173.84;5072410;28;20380;-81
2023/02/26 01:17:11;;;;;;;5.97;2.22;;;;;;;0.82;75.68;100182.34;5070805;28;20048;-81
2023/02/26 01:19:50;;;;;;;3.00;2.10;;;;;;;0.88;76.11;100187.50;5071582;28;20496;-83
2023/02/26 01:22:22;;;;;;;7.28;2.90;;;;;;;0.90;76.27;100196.16;5072041;28;20128;-81
2023/02/26 01:25:00;;;;;;;5.10;2.10;;;;;;;0.62;76.29;100140.03;5063106;28;20048;-82
2023/02/26 01:27:27;;;;;;;5.95;2.17;;;;;;;0.96;75.72;100200.44;5087702;28;20237;-81
2023/02/26 01:29:54;;;;;;;6.55;2.20;;;;;;;0.53;74.93;100140.09;5077739;28;20052;-81
2023/02/26 01:32:25;;;;;;;6.88;2.22;;;;;;;0.92;76.20;100202.22;5073211;28;20068;-81
2023/02/26 01:35:05;;;;;;;5.32;2.00;;;;;;;0.94;76.12;100202.22;5073482;28;20060;-83
2023/02/26 01:37:41;;;;;;;4.97;2.00;;;;;;;0.77;75.99;100180.69;5072441;28;20062;-80
2023/02/26 01:40:28;;;;;;;5.57;2.30;;;;;;;0.92;76.71;100207.44;5064648;28;20417;-81
2023/02/26 01:43:02;;;;;;;4.90;2.05;;;;;;;0.87;76.70;100204.00;5072218;28;20055;-81
2023/02/26 01:45:34;;;;;;;4.15;1.80;;;;;;;0.91;77.62;100210.06;5071780;28;20128;-80
2023/02/26 01:48:17;;;;;;;3.80;2.00;;;;;;;0.49;77.52;100154.88;5063340;28;20537;-80
2023/02/26 01:50:44;;;;;;;5.53;2.40;;;;;;;0.67;78.17;100201.59;5067568;28;20052;-80
2023/02/26 01:53:19;;;;;;;4.65;2.00;;;;;;;0.72;78.96;100221.56;5072153;28;20139;-79
2023/02/26 01:55:56;;;;;;;2.33;1.75;;;;;;;0.61;79.86;100214.72;5070908;28;20095;-80
2023/02/26 01:58:26;;;;;;;4.75;1.83;;;;;;;0.02;80.89;100124.06;5066359;28;20063;-80
2023/02/26 02:00:53;;;;;;;5.65;1.75;;;;;;;0.37;81.19;100177.59;5070329;28;20620;-79
2023/02/26 02:03:22;;;;;;;3.35;1.73;;;;;;;0.46;81.44;100193.16;5069557;28;20060;-81
2023/02/26 02:05:55;;;;;;;5.18;1.40;;;;;;;0.52;81.53;100199.16;5069509;28;20057;-79
2023/02/26 02:08:22;;;;;;;3.58;1.55;;;;;;;0.66;82.07;100214.66;5066670;28;20093;-79
2023/02/26 02:10:50;;;;;;;4.03;1.73;;;;;;;0.44;82.84;100187.09;5071162;28;20056;-83
2023/02/26 02:13:36;;;;;;;3.97;1.65;;;;;;;0.50;83.89;100200.03;5071959;28;20072;-82
2023/02/26 02:16:18;;;;;;;3.10;1.45;;;;;;;0.74;84.06;100228.50;5074173;28;20405;-81
2023/02/26 02:19:03;;;;;;;4.82;1.40;;;;;;;0.78;85.07;100235.41;5075041;28;20052;-82
2023/02/26 02:22:10;;;;;;;7.45;1.88;;;;;;;0.79;86.76;100244.09;5073383;28;20051;-83
2023/02/26 02:25:20;;;;;;;5.88;1.98;;;;;;;0.74;90.68;100244.13;5071546;28;20052;-82
2023/02/26 02:28:02;;;;;;;4.65;2.08;;;;;;;-0.15;93.63;100103.41;5063988;28;20561;-82
2023/02/26 02:30:41;;;;;;;5.65;1.90;;;;;;;0.67;96.69;100250.25;5073443;28;20493;-80
2023/02/26 02:33:22;;;;;;;3.75;1.52;;;;;;;-0.21;98.01;100107.81;5072350;28;20152;-80
2023/02/26 02:35:55;;;;;;;11.07;2.13;;;;;;;0.50;100.00;100249.53;5072887;28;20048;-81
2023/02/26 02:38:29;;;;;;;4.78;1.65;;;;;;;0.40;100.00;100225.31;5074266;28;20054;-80
2023/02/26 02:41:10;;;;;;;5.75;2.30;;;;;;;-0.39;100.00;100099.25;5073485;28;20539;-80
2023/02/26 02:43:40;;;;;;;4.90;2.00;;;;;;;-0.24;100.00;100129.50;5068589;28;20048;-81
2023/02/26 02:46:11;;;;;;;4.55;1.73;;;;;;;0.21;100.00;100224.59;5073873;28;20101;-80
2023/02/26 02:48:52;;;;;;;5.32;1.90;;;;;;;0.32;100.00;100260.97;5070998;28;20074;-80
2023/02/26 02:51:29;;;;;;;5.72;2.10;;;;;;;-0.62;100.00;100089.88;5073982;28;20144;-81
2023/02/26 02:54:01;;;;;;;5.60;2.22;;;;;;;-0.14;100.00;100205.75;5073910;28;20044;-81
2023/02/26 02:56:34;;;;;;;5.43;2.13;;;;;;;0.17;100.00;100261.06;5069746;28;20362;-80
2023/02/26 02:59:18;;;;;;;4.88;2.05;;;;;;;-0.22;100.00;100218.84;5073539;28;20041;-81
2023/02/26 03:01:50;;;;;;;4.45;2.25;;;;;;;-0.73;100.00;100141.97;5070430;28;20151;-82
2023/02/26 03:04:17;;;;;;;6.00;2.25;;;;;;;-0.28;100.00;100231.00;5074053;28;20139;-81
2023/02/26 03:06:45;;;;;;;5.20;1.95;;;;;;;-0.85;100.00;100139.44;5073120;28;20140;-80
2023/02/26 03:09:12;;;;;;;3.20;2.10;;;;;;;-0.14;100.00;100278.63;5073804;28;20049;-82
2023/02/26 03:11:39;;;;;;;5.50;2.15;;;;;;;-0.47;100.00;100233.69;5072946;28;20527;-82
2023/02/26 03:14:09;;;;;;;6.43;2.25;;;;;;;-0.77;100.00;100194.84;5074399;28;20573;-81
2023/02/26 03:16:41;;;;;;;7.45;2.53;;;;;;;-0.26;100.00;100276.97;5072998;28;20159;-82
2023/02/26 03:19:37;;;;;;;4.78;2.22;;;;;;;-0.30;100.00;100279.56;5067513;28;20401;-81
2023/02/26 03:22:19;;;;;;;6.45;2.97;;;;;;;-0.20;100.00;100294.28;5068285;28;20040;-81
2023/02/26 03:25:08;;;;;;;4.30;2.28;;;;;;;-1.24;100.00;100122.25;5073102;28;20045;-80
2023/02/26 03:27:43;;;;;;;5.53;2.33;;;;;;;-0.85;100.00;100196.63;5070825;28;20068;-82
2023/02/26 03:30:25;;;;;;;11.07;2.45;;;;;;;-0.27;100.00;100293.44;5066103;28;20502;-81
2023/02/26 03:33:02;;;;;;;6.57;2.75;;;;;;;-0.38;100.00;100283.09;5073272;28;20055;-82
2023/02/26 03:35:49;;;;;;;5.00;2.20;;;;;;;-0.69;100.00;100237.28;5073350;28;20080;-82
2023/02/26 03:38:35;;;;;;;5.15;2.60;;;;;;;-0.40;100.00;100282.25;5072884;28;20092;-81
2023/02/26 03:41:07;;;;;;;3.83;2.17;;;;;;;-0.51;100.00;100283.16;5074914;28;20083;-84
2023/02/26 03:43:45;;;;;;;4.72;2.70;;;;;;;-0.37;100.00;100300.44;5074080;28;20211;-82
2023/02/26 03:46:16;;;;;;;7.85;2.55;;;;;;;-1.26;100.00;100160.41;5087241;28;20123;-80
2023/02/26 03:48:47;;;;;;;6.18;2.08;;;;;;;-1.06;100.00;100202.75;5086150;28;20064;-81
2023/02/26 03:51:15;;;;;;;7.20;2.35;;;;;;;-1.09;100.00;100216.59;5075843;28;20056;-80
2023/02/26 03:53:49;;;;;;;6.30;2.40;;;;;;;-1.40;100.00;100160.41;5076027;28;20049;-80
2023/02/26 03:56:28;;;;;;;3.40;1.92;;;;;;;-0.41;100.00;100324.72;5076689;28;20083;-79
2023/02/26 03:58:55;;;;;;;6.15;2.20;;;;;;;-0.84;100.00;100258.13;5075622;28;20155;-80
2023/02/26 04:01:29;;;;;;;5.20;2.40;;;;;;;-0.43;100.00;100331.66;5067553;28;20197;-82
2023/02/26 04:04:01;;;;;;;10.75;2.67;;;;;;;-0.45;100.00;100332.53;5075735;28;20068;-82
2023/02/26 04:06:29;;;;;;;5.05;2.10;;;;;;;-0.75;100.00;100284.97;5073145;28;20132;-83
2023/02/26 04:08:56;;;;;;;8.32;2.50;;;;;;;-0.43;100.00;100351.63;5068783;28;20109;-81
2023/02/26 04:11:24;;;;;;;5.97;2.30;;;;;;;-0.83;100.00;100284.13;5071429;28;20751;-82
2023/02/26 04:13:51;;;;;;;4.38;2.00;;;;;;;-0.63;100.00;100315.25;5051815;28;20571;-82
2023/02/26 04:16:19;;;;;;;6.60;2.90;;;;;;;-0.92;100.00;100298.88;5072218;28;20091;-80
2023/02/26 04:18:46;;;;;;;6.70;2.38;;;;;;;-0.85;100.00;100292.81;5072502;28;20060;-81
2023/02/26 04:21:14;;;;;;;7.18;2.33;;;;;;;-1.31;100.00;100225.34;5072145;28;20126;-81
2023/02/26 04:23:41;;;;;;;4.57;2.63;;;;;;;-1.11;100.00;100266.88;5071362;28;20045;-82
2023/02/26 04:26:08;;;;;;;5.55;2.38;;;;;;;-0.74;100.00;100333.50;5067823;28;20515;-81
2023/02/26 04:28:36;;;;;;;5.90;2.60;;;;;;;-1.55;100.00;100189.88;5072477;28;20135;-81
2023/02/26 04:31:06;;;;;;;5.43;2.33;;;;;;;-1.03;100.00;100272.03;5071912;28;20527;-80
2023/02/26 04:33:33;;;;;;;7.07;2.63;;;;;;;-0.76;100.00;100340.44;5070873;28;20148;-80
2023/02/26 04:36:00;;;;;;;7.38;2.53;;;;;;;-0.73;100.00;100357.75;5066396;28;20053;-80
2023/02/26 04:38:28;;;;;;;4.70;2.58;;;;;;;-0.74;100.00;100338.69;5072096;28;20505;-81
2023/02/26 04:40:54;;;;;;;7.80;2.63;;;;;;;-0.60;100.00;100367.25;5067199;28;20110;-80
2023/02/26 04:43:21;;;;;;;7.00;2.50;;;;;;;-0.76;100.00;100330.03;5068454;28;20127;-80
2023/02/26 04:45:48;;;;;;;7.32;2.60;;;;;;;-0.87;100.00;100321.41;5072235;28;20044;-80
2023/02/26 04:48:16;;;;;;;5.18;1.88;;;;;;;-0.59;100.00;100373.34;5071948;28;20052;-79
2023/02/26 04:50:43;;;;;;;6.72;2.50;;;;;;;-0.59;100.00;100375.94;5071872;28;20053;-79
2023/02/26 04:53:10;;;;;;;5.47;2.45;;;;;;;-0.62;100.00;100378.53;5066471;28;20045;-80
2023/02/26 04:55:36;;;;;;;7.55;2.30;;;;;;;-1.11;100.00;100304.13;5053802;28;20411;-79
2023/02/26 04:58:03;;;;;;;6.32;2.35;;;;;;;-1.01;100.00;100327.50;5052861;28;20144;-80
2023/02/26 05:00:30;;;;;;;4.45;2.25;;;;;;;-0.77;100.00;100379.44;5062212;28;20143;-82
2023/02/26 05:02:56;;;;;;;4.82;2.22;;;;;;;-0.88;100.00;100357.78;5068609;28;20041;-79
2023/02/26 05:05:23;;;;;;;6.95;2.78;;;;;;;-1.50;100.00;100247.00;5071238;28;20767;-79
2023/02/26 05:07:52;;;;;;;6.55;2.20;;;;;;;-0.83;100.00;100379.47;5071447;28;20128;-79
2023/02/26 05:10:19;;;;;;;3.97;2.22;;;;;;;-0.97;100.00;100343.09;5071305;28;20566;-79
2023/02/26 05:12:45;;;;;;;5.30;2.60;;;;;;;-1.50;100.00;100263.44;5071109;28;20044;-80
2023/02/26 05:15:12;;;;;;;6.35;2.13;;;;;;;-1.07;100.00;100344.81;5066828;28;20098;-79
2023/02/26 05:17:39;;;;;;;4.13;2.00;;;;;;;-0.89;100.00;100379.44;5053403;28;20049;-82
2023/02/26 05:20:08;;;;;;;5.35;2.38;;;;;;;-1.06;100.00;100346.53;5054700;28;20050;-82
2023/02/26 05:22:37;;;;;;;7.22;2.30;;;;;;;-0.81;100.00;100398.53;5071713;28;20040;-81
2023/02/26 05:25:06;;;;;;;5.32;2.28;;;;;;;-1.25;100.00;100326.63;5072469;28;20147;-80
2023/02/26 05:27:33;;;;;;;4.95;2.00;;;;;;;-1.63;100.00;100253.06;5071536;28;20151;-82
2023/02/26 05:30:00;;;;;;;3.47;1.60;;;;;;;-1.12;100.00;100359.56;5072033;28;20083;-82
2023/02/26 05:32:27;;;;;;;4.97;1.80;;;;;;;-1.23;100.00;100348.28;5069854;28;20048;-81
2023/02/26 05:34:54;;;;;;;5.85;2.05;;;;;;;-1.19;100.00;100370.81;5069963;28;20150;-81
2023/02/26 05:37:21;;;;;;;3.28;1.70;;;;;;;-1.12;100.00;100376.88;5072247;28;20091;-81
2023/02/26 05:39:47;;;;;;;5.55;1.83;;;;;;;-1.11;100.00;100376.88;5073158;28;20057;-81
2023/02/26 05:42:14;;;;;;;6.55;2.03;;;;;;;-1.09;100.00;100395.91;5071952;28;20053;-81
2023/02/26 05:44:41;;;;;;;6.38;2.35;;;;;;;-0.82;100.00;100454.00;5066516;28;20140;-81
2023/02/26 05:47:08;;;;;;;7.55;1.90;;;;;;;-1.74;100.00;100301.53;5071656;28;20048;-81
2023/02/26 05:49:35;;;;;;;3.45;1.73;;;;;;;-1.57;100.00;100323.16;5055738;28;20105;-81
2023/02/26 05:52:01;;;;;;;2.90;1.70;;;;;;;-1.94;100.00;100241.81;5076236;28;20147;-82
2023/02/26 05:54:28;;;;;;;4.80;1.60;;;;;;;-1.14;100.00;100376.00;5082101;28;20076;-80
2023/02/26 05:56:55;;;;;;;2.28;1.50;;;;;;;-0.67;100.00;100453.97;5071321;28;20064;-82
2023/02/26 05:59:22;;;;;;;7.25;2.00;;;;;;;-1.74;100.00;100257.41;5088265;28;20083;-82
2023/02/26 06:01:49;;;;;;;5.70;1.70;;;;;;;-0.97;100.00;100382.06;5071407;28;20082;-82
2023/02/26 06:04:16;;;;;;;4.43;1.90;;;;;;;-0.60;100.00;100455.69;5075540;28;20047;-80
2023/02/26 06:06:43;;;;;;;4.78;1.98;;;;;;;-0.75;100.00;100429.69;5074815;28;20079;-82
2023/02/26 06:09:09;;;;;;;2.97;1.65;;;;;;;-0.93;100.00;100411.50;5086383;28;20052;-82
2023/02/26 06:11:38;;;;;;;5.90;2.42;;;;;;;-1.36;100.00;100361.25;5081962;28;20094;-81
2023/02/26 06:14:05;;;;;;;9.65;2.03;;;;;;;-1.19;100.00;100380.34;5084877;28;20056;-82
2023/02/26 06:16:34;;;;;;;5.18;2.38;;;;;;;-0.56;100.00;100493.84;5082726;28;20393;-81
2023/02/26 06:19:01;;;;;;;4.10;2.00;;;;;;;-1.60;100.00;100311.06;5079951;28;20086;-81
2023/02/26 06:21:28;;;;;;;5.38;1.80;;;;;;;-1.31;100.00;100381.19;5081479;28;20079;-81
2023/02/26 06:23:55;;;;;;;5.38;2.00;;;;;;;-0.64;100.00;100473.91;5082509;28;20045;-80
2023/02/26 06:26:22;;;;;;;4.30;1.75;;;;;;;-0.98;100.00;100426.25;5066124;28;20382;-80
2023/02/26 06:28:49;;;;;;;4.00;1.80;;;;;;;-1.40;100.00;100365.59;5081628;28;20060;-79
2023/02/26 06:31:16;;;;;;;5.43;1.77;;;;;;;-0.71;100.00;100483.44;5079335;28;20135;-82
2023/02/26 06:33:43;;;;;;;5.93;2.15;;;;;;;-0.83;100.00;100460.91;5089882;28;20114;-82
2023/02/26 06:36:09;;;;;;;5.03;1.95;;;;;;;-0.81;100.00;100473.91;5085098;28;20076;-81
2023/02/26 06:38:36;;;;;;;3.45;1.92;;;;;;;-0.70;100.00;100495.59;5085353;28;20172;-81
2023/02/26 06:41:03;;;;;;;4.20;1.92;;;;;;;-0.69;100.00;100502.53;5087919;28;20064;-81
2023/02/26 06:43:30;;;;;;;4.75;2.10;;;;;;;-0.98;100.00;100457.44;5088918;28;20076;-80
2023/02/26 06:45:58;;;;;;;4.75;1.85;;;;;;;-0.68;100.00;100514.66;5090191;28;20044;-81
2023/02/26 06:48:26;;;;;;;5.28;2.03;;;;;;;-1.11;100.00;100452.25;5087993;28;20120;-81
2023/02/26 06:50:53;;;;;;;5.07;2.25;;;;;;;-0.78;100.00;100531.09;5086851;28;20045;-81
2023/02/26 06:53:20;;;;;;;5.10;1.88;;;;;;;-0.73;100.00;100537.19;5090198;28;20070;-82
2023/02/26 06:55:50;;;;;;;5.82;1.70;;;;;;;-0.87;100.00;100526.75;5092808;28;20123;-83
2023/02/26 06:58:17;;;;;;;2.55;1.85;;;;;;;-1.23;100.00;100449.59;5088905;28;20052;-81
2023/02/26 07:00:47;;;;;;;4.45;1.90;;;;;;;-1.21;100.00;100453.06;5091423;28;20036;-80
2023/02/26 07:03:16;;;;;;;3.72;1.60;;;;;;;-0.55;100.00;100555.41;5086073;28;20052;-82
2023/02/26 07:05:45;;;;;;;3.03;1.73;;;;;;;-0.55;100.00;100549.34;5091225;28;20047;-82
2023/02/26 07:08:12;;;;;;;4.05;1.70;;;;;;;-0.44;100.00;100551.06;5078825;28;20032;-82
2023/02/26 07:10:40;;;;;;;3.38;1.85;;;;;;;-1.16;100.00;100427.09;5096533;28;20041;-82
2023/02/26 07:13:07;;;;;;;5.40;1.95;;;;;;;-1.01;100.00;100452.25;5093964;28;20033;-83
2023/02/26 07:15:34;;;;;;;4.32;1.63;;;;;;;-1.21;100.00;100406.31;5096118;28;20063;-83
2023/02/26 07:18:01;;;;;;;6.82;2.00;;;;;;;-1.09;100.00;100454.81;5093166;28;20055;-82
2023/02/26 07:20:29;;;;;;;4.70;1.90;;;;;;;-0.92;100.00;100479.09;5088770;28;20056;-81
2023/02/26 07:22:56;;;;;;;4.13;1.73;;;;;;;-0.49;100.00;100533.75;5082605;28;20547;-82
2023/02/26 07:25:24;;;;;;;6.47;2.03;;;;;;;-0.35;100.00;100550.22;5078315;28;20076;-81
2023/02/26 07:27:51;;;;;;;4.65;2.05;;;;;;;-0.45;100.00;100532.84;5074334;28;20098;-81
2023/02/26 07:30:17;;;;;;;4.60;1.80;;;;;;;-0.40;99.82;100546.72;5077964;28;20139;-82
2023/02/26 07:32:44;;;;;;;3.40;1.98;;;;;;;-0.78;97.80;100466.09;5078990;28;20079;-79
2023/02/26 07:35:11;;;;;;;4.15;2.42;;;;;;;0.02;98.63;100597.88;5082792;28;20136;-81
2023/02/26 07:37:37;;;;;;;4.20;2.20;;;;;;;-0.24;97.90;100542.38;5082268;28;20052;-81
2023/02/26 07:40:05;;;;;;;5.20;1.90;;;;;;;-0.14;96.67;100557.13;5078081;28;20044;-81
2023/02/26 07:42:31;;;;;;;4.68;2.53;;;;;;;0.24;97.12;100617.81;5088512;28;20459;-80
2023/02/26 07:44:58;;;;;;;4.93;2.05;;;;;;;-0.40;95.39;100497.31;5074037;28;20113;-80
2023/02/26 07:47:29;;;;;;;5.38;2.13;;;;;;;0.39;96.04;100626.47;5071965;28;20128;-80
2023/02/26 07:49:56;;;;;;;5.95;2.13;;;;;;;-0.07;94.09;100525.00;5075108;28;20056;-80
2023/02/26 07:52:23;;;;;;;4.20;2.10;;;;;;;0.49;94.84;100599.53;5069712;28;20570;-81
2023/02/26 07:54:49;;;;;;;4.75;1.95;;;;;;;0.69;100.00;100596.00;5074868;28;20578;-80
2023/02/26 07:57:16;;;;;;;3.63;2.05;;;;;;;0.95;96.73;100615.84;5061888;28;20135;-80
2023/02/26 07:59:43;;;;;;;5.10;2.10;;;;;;;0.72;87.55;100576.88;5063831;28;20061;-80
2023/02/26 08:02:12;;;;;;;6.72;2.30;;;;;;;1.26;86.26;100629.66;5068169;28;20147;-79
2023/02/26 08:04:39;;;;;;;4.60;1.90;;;;;;;1.09;84.67;100535.84;5061937;28;20079;-79
2023/02/26 08:07:06;;;;;;;5.93;1.90;;;;;;;1.39;78.72;100566.06;5072451;28;20080;-79
2023/02/26 08:09:32;;;;;;;2.35;1.75;;;;;;;1.45;74.56;100542.53;5067682;28;20690;-80
2023/02/26 08:11:59;;;;;;;4.50;1.88;;;;;;;1.02;72.49;100480.25;5068580;28;20062;-81
2023/02/26 08:14:26;;;;;;;3.40;1.80;;;;;;;0.82;72.70;100468.19;5055722;28;20057;-82
2023/02/26 08:16:53;;;;;;;5.38;2.17;;;;;;;1.25;72.50;100542.69;5064693;28;20435;-80
2023/02/26 08:19:19;;;;;;;4.70;1.92;;;;;;;1.73;71.69;100621.50;5064564;28;20056;-80
2023/02/26 08:21:46;;;;;;;5.07;1.80;;;;;;;0.57;70.92;100431.00;5062968;28;20071;-77
2023/02/26 08:24:16;;;;;;;4.10;2.10;;;;;;;1.33;69.43;100553.06;5071761;28;20134;-80
2023/02/26 08:26:44;;;;;;;3.30;1.70;;;;;;;2.00;69.97;100660.47;5066313;28;20086;-80
2023/02/26 08:29:11;;;;;;;3.42;1.83;;;;;;;2.44;69.08;100664.41;5070649;28;20053;-79
2023/02/26 08:31:38;;;;;;;3.55;2.03;;;;;;;2.10;65.27;100557.63;5065625;28;20102;-80
2023/02/26 08:34:05;;;;;;;4.25;1.50;;;;;;;2.05;63.87;100576.81;5063540;28;20125;-80
2023/02/26 08:36:31;;;;;;;3.80;1.80;;;;;;;2.45;65.18;100640.88;5053875;28;20135;-79
2023/02/26 08:38:58;;;;;;;5.50;1.42;;;;;;;1.97;64.93;100552.53;5072454;28;20442;-80
2023/02/26 08:41:28;;;;;;;6.70;1.77;;;;;;;2.66;62.94;100658.09;5072394;28;20041;-79
2023/02/26 08:43:55;;;;;;;1.58;1.40;;;;;;;1.30;63.44;100475.69;5073198;28;20040;-79
2023/02/26 08:46:24;;;;;;;4.30;1.55;;;;;;;2.06;64.20;100644.72;5046262;28;20119;-79
2023/02/26 08:48:52;;;;;;;4.38;1.60;;;;;;;1.74;65.49;100676.28;5070345;28;20685;-81
2023/02/26 08:51:20;;;;;;;3.55;1.90;;;;;;;0.66;67.21;100529.97;5072314;28;20094;-79
2023/02/26 08:53:49;;;;;;;4.13;1.55;;;;;;;1.55;70.13;100698.19;5066335;28;20045;-78
2023/02/26 08:56:16;;;;;;;2.60;1.55;;;;;;;0.64;70.22;100570.81;5070549;28;20131;-80
2023/02/26 08:58:43;;;;;;;2.28;1.25;;;;;;;1.24;69.38;100694.00;5070173;28;20056;-80
2023/02/26 09:01:09;;;;;;;3.80;1.75;;;;;;;1.32;71.13;100711.34;5073209;28;20211;-80
2023/02/26 09:03:36;;;;;;;4.43;1.95;;;;;;;1.39;71.53;100696.53;5055417;28;20058;-79
2023/02/26 09:06:06;;;;;;;5.72;1.90;;;;;;;0.63;69.79;100562.13;5072778;28;20064;-79
2023/02/26 09:08:35;;;;;;;2.42;1.60;;;;;;;1.53;70.10;100709.50;5059454;28;20541;-80
2023/02/26 09:11:02;;;;;;;5.88;1.85;;;;;;;0.88;69.59;100599.41;5070921;28;20135;-80
2023/02/26 09:13:29;;;;;;;4.03;1.80;;;;;;;1.67;70.27;100724.22;5072093;28;20691;-81
2023/02/26 09:15:56;;;;;;;3.45;1.80;;;;;;;1.62;67.04;100704.22;5072614;28;20084;-80
2023/02/26 09:18:23;;;;;;;3.97;1.55;;;;;;;0.90;66.08;100573.31;5063304;28;20045;-80
2023/02/26 09:20:50;;;;;;;6.47;1.52;;;;;;;1.70;65.75;100711.16;5072195;28;20054;-80
2023/02/26 09:23:17;;;;;;;6.35;1.80;;;;;;;0.88;66.28;100565.50;5063747;28;20084;-80
2023/02/26 09:25:43;;;;;;;2.35;1.50;;;;;;;1.74;65.15;100707.63;5067588;28;20053;-80
2023/02/26 09:28:10;;;;;;;3.25;2.03;;;;;;;1.61;65.66;100669.44;5063414;28;20573;-77
2023/02/26 09:30:37;;;;;;;2.95;1.50;;;;;;;1.42;65.66;100587.78;5054174;28;20067;-79
2023/02/26 09:33:04;;;;;;;3.70;1.75;;;;;;;2.53;65.40;100706.16;5068558;28;20124;-80
2023/02/26 09:35:31;;;;;;;2.38;1.55;;;;;;;2.71;62.64;100715.56;5067057;28;20143;-80
2023/02/26 09:37:57;;;;;;;2.30;1.50;;;;;;;2.54;61.83;100714.84;5072288;28;20052;-79
2023/02/26 09:40:35;;;;;;;2.30;1.55;;;;;;;2.69;61.74;100740.84;5070390;28;20673;-81
2023/02/26 09:43:09;;;;;;;5.30;1.60;;;;;;;2.01;61.62;100640.44;5065573;28;20095;-80
2023/02/26 09:45:39;;;;;;;1.85;1.38;;;;;;;2.64;61.98;100753.13;5071259;28;20096;-81
2023/02/26 09:48:14;;;;;;;1.75;1.35;;;;;;;2.15;61.86;100706.50;5069372;28;20063;-79
2023/02/26 09:50:51;;;;;;;;;;;;;;;2.43;62.61;100751.56;5068456;28;20135;-80
2023/02/26 09:53:26;;;;;;;3.90;1.30;;;;;;;2.40;63.19;100749.81;5062538;28;20010;-78
2023/02/26 09:56:00;;;;;;;2.00;1.40;;;;;;;2.28;62.26;100726.41;5071566;28;20129;-79
2023/02/26 09:58:37;;;;;;;4.63;1.75;;;;;;;2.37;62.54;100760.31;5068247;28;20083;-79
2023/02/26 10:01:32;;;;;;;2.67;1.50;;;;;;;1.62;62.71;100652.88;5069054;28;20122;-79
2023/02/26 10:04:04;;;;;;;2.90;1.73;;;;;;;2.18;62.96;100758.72;5063353;28;20474;-79
2023/02/26 10:06:38;;;;;;;3.60;1.70;;;;;;;2.12;64.17;100743.09;5063954;28;20063;-78
2023/02/26 10:09:05;;;;;;;2.92;1.58;;;;;;;2.42;63.54;100766.38;5071994;28;20075;-79
2023/02/26 10:11:56;;;;;;;2.55;1.35;;;;;;;2.46;62.89;100768.09;5070722;28;20493;-78
2023/02/26 10:14:30;;;;;;;4.05;1.92;;;;;;;2.15;61.79;100758.75;5052115;28;20041;-81
2023/02/26 10:17:02;;;;;;;1.75;1.40;;;;;;;2.22;63.11;100783.06;5069727;28;20147;-79
2023/02/26 10:19:38;;;;;;;2.95;1.50;;;;;;;2.43;62.89;100775.94;5062946;28;20102;-79
2023/02/26 10:22:20;;;;;;;5.25;1.60;;;;;;;1.62;62.43;100618.97;5069259;28;20052;-80
2023/02/26 10:24:57;;;;;;;2.58;1.40;;;;;;;2.61;61.23;100766.22;5065760;28;20078;-80
2023/02/26 10:27:41;;;;;;;2.22;1.20;;;;;;;2.30;60.16;100692.44;5068577;28;20098;-80
2023/02/26 10:30:30;;;;;;;3.28;1.30;;;;;;;2.97;59.66;100776.34;5069769;28;20052;-78
2023/02/26 10:33:19;;;;;;;1.95;1.35;;;;;;;2.94;59.62;100789.44;5053345;28;20075;-79
2023/02/26 10:36:23;;;;;;;1.90;1.10;;;;;;;2.63;59.73;100751.38;5068834;28;20048;-79
2023/02/26 10:38:59;;;;;;;2.33;1.50;;;;;;;2.78;59.92;100788.72;5074483;28;20044;-80
2023/02/26 10:41:30;;;;;;;1.85;1.10;;;;;;;2.52;58.80;100761.09;5073354;28;20051;-79
2023/02/26 10:44:12;;;;;;;3.30;1.25;;;;;;;2.80;59.38;100801.78;5056533;28;20203;-78
2023/02/26 10:47:01;;;;;;;3.25;1.45;;;;;;;2.69;58.19;100796.63;5049728;28;20075;-78
2023/02/26 10:49:41;;;;;;;2.55;1.00;;;;;;;2.43;58.21;100760.25;5072613;28;20144;-79
2023/02/26 10:52:13;;;;;;;2.55;1.00;;;;;;;2.30;59.29;100748.19;5071365;28;20102;-78
2023/02/26 10:54:52;;;;;;;2.03;1.17;;;;;;;2.09;59.23;100699.56;5074672;28;20052;-80
2023/02/26 10:57:33;;;;;;;1.45;0.95;;;;;;;2.48;58.10;100768.06;5054266;28;20068;-80
2023/02/26 11:00:01;;;;;;;1.90;0.93;;;;;;;2.94;58.12;100812.13;5054369;28;20065;-79
2023/02/26 11:02:42;;;;;;;1.67;0.80;;;;;;;2.54;58.32;100720.94;5053280;28;20148;-82
2023/02/26 11:05:26;;;;;;;1.63;0.82;;;;;;;3.02;58.04;100787.63;5036280;28;20445;-78
2023/02/26 11:07:58;;;;;;;1.75;0.90;;;;;;;3.21;56.08;100824.94;5053854;28;20059;-78
2023/02/26 11:10:36;;;;;;;1.52;1.00;;;;;;;3.13;56.22;100811.94;5052108;28;20045;-82
2023/02/26 11:13:03;;;;;;;1.75;1.10;;;;;;;3.14;55.83;100805.84;5054424;28;20057;-81
2023/02/26 11:15:31;;;;;;;1.38;0.98;;;;;;;2.78;55.51;100754.72;5053250;28;20084;-79
2023/02/26 11:18:00;;;;;;;1.73;0.85;;;;;;;1.77;55.46;100582.28;5053387;28;20141;-81
2023/02/26 11:20:37;;;;;;;1.60;0.73;;;;;;;1.74;55.00;100595.38;5051205;28;20482;-81
2023/02/26 11:23:12;;;;;;;3.75;1.25;;;;;;;1.96;54.44;100660.50;5052700;28;20528;-82
2023/02/26 11:25:39;;;;;;;1.73;0.90;;;;;;;2.09;55.03;100690.84;5055400;28;20057;-82
2023/02/26 11:28:19;;;;;;;4.03;1.00;;;;;;;3.11;54.54;100824.16;5053954;28;20688;-82
2023/02/26 11:30:47;;;;;;;1.42;0.93;;;;;;;2.52;54.16;100729.72;5046669;28;20052;-80
2023/02/26 11:33:26;;;;;;;3.03;0.90;;;;;;;2.47;54.84;100703.59;5052780;28;20081;-80
2023/02/26 11:36:00;;;;;;;1.85;0.70;;;;;;;3.34;54.21;100831.78;5053968;28;20061;-82
2023/02/26 11:38:28;;;;;;;1.60;0.80;;;;;;;3.15;54.35;100770.91;5054000;28;20087;-83
2023/02/26 11:40:57;;;;;;;2.05;0.70;;;;;;;3.53;54.35;100791.41;5055139;28;20060;-81
2023/02/26 11:43:32;;;;;;;2.53;0.63;;;;;;;2.80;53.48;100632.66;5054057;28;20134;-82
2023/02/26 11:46:00;;;;;;;3.00;0.75;;;;;;;3.80;52.85;100808.53;5053118;28;20045;-82